Moose Creek, Minnesota
Current Conditions -  °F | °C
As of 1:32 PM on Friday 28 Nov 2014 (Local Time) from KBJI Reporting Station
Light Snow Light Snow  
Wind Chill:   Ceiling: 1400
Heat Index: 13°   Visibility: 5mi
Dew Point:   Wind: 8mph
Humidity: 79%   Direction: 100°E
Pressure: 29.84"   Gusts: NA
Location:  47.4609°N, 95.2384°W
Report Text: KBJI 281932Z AUTO 10007KT 5SM -SN BKN014 OVC042 M11/M14 A2984 RMK AO2 T11071137
Loading
Personal Weather Stations






























Interactive Weather Map New forecast layout! Learn more

10-Day Weather Forecast

Advertisements
Track Severe Weather on mobile